Antwerp, Ohio
Current Conditions -  °F | °C
As of 7:55 AM on Saturday 20 Dec 2014 (Local Time) from KGWB Reporting Station
Haze Haze  
Wind Chill: -5°   Ceiling: 3100
Heat Index: -5°   Visibility: 5mi
Dew Point: -7°   Wind: 0mph
Humidity: 86%   Direction: NA
Pressure: 30.29"   Gusts: NA
Location:  41.18°N, 84.74°W
Report Text: KGWB 201255Z AUTO 00000KT 5SM BR BKN031 M05/M07 A3029 RMK AO2
Loading
Personal Weather Stations






























Interactive Weather Map New forecast layout! Learn more

10-Day Weather Forecast

Advertisements
Track Severe Weather on mobile